createdAt,value
2022-09-28T00:00:19.579Z,15.16
2022-09-28T00:02:46.296Z,14.93
2022-09-28T00:05:12.908Z,14.83
2022-09-28T00:07:39.476Z,15.01
2022-09-28T00:10:06.091Z,15.09
2022-09-28T00:12:32.744Z,15.17
2022-09-28T00:14:59.603Z,15.18
2022-09-28T00:17:26.759Z,15.25
2022-09-28T00:19:53.352Z,15.06
2022-09-28T00:22:19.926Z,15.17
2022-09-28T00:24:46.741Z,15.24
2022-09-28T00:27:13.374Z,15.33
2022-09-28T00:29:40.010Z,14.58
2022-09-28T00:32:09.529Z,13.98
2022-09-28T00:34:38.325Z,13.66
2022-09-28T00:37:05.827Z,13.84
2022-09-28T00:39:32.440Z,14.38
2022-09-28T00:41:59.616Z,14.47
2022-09-28T00:44:26.155Z,14.59
2022-09-28T00:47:06.283Z,14.49
2022-09-28T00:49:51.691Z,14.60
2022-09-28T00:52:21.746Z,14.45
2022-09-28T00:54:49.282Z,13.83
2022-09-28T00:57:17.231Z,14.30
2022-09-28T00:59:43.831Z,14.53
2022-09-28T01:02:10.719Z,14.65
2022-09-28T01:04:38.791Z,14.41
2022-09-28T01:07:06.066Z,14.63
2022-09-28T01:09:32.711Z,14.70
2022-09-28T01:11:59.279Z,14.74
2022-09-28T01:14:25.912Z,14.61
2022-09-28T01:17:04.522Z,14.73
2022-09-28T01:19:31.666Z,14.62
2022-09-28T01:22:17.844Z,14.62
2022-09-28T01:24:44.760Z,14.76
2022-09-28T01:27:14.301Z,14.74
2022-09-28T01:29:46.787Z,14.25
2022-09-28T01:32:30.016Z,13.67
2022-09-28T01:35:05.883Z,14.09
2022-09-28T01:37:37.530Z,13.21
2022-09-28T01:40:05.180Z,13.30
2022-09-28T01:42:33.275Z,13.61
2022-09-28T01:45:04.063Z,14.19
2022-09-28T01:47:33.507Z,13.94
2022-09-28T01:50:05.026Z,14.12
2022-09-28T01:52:42.001Z,14.16
2022-09-28T01:55:21.303Z,13.64
2022-09-28T01:57:55.498Z,13.91
2022-09-28T02:00:24.209Z,13.54
2022-09-28T02:02:54.034Z,13.95
2022-09-28T02:05:33.001Z,13.93
2022-09-28T02:08:09.088Z,14.03
2022-09-28T02:10:39.169Z,14.00
2022-09-28T02:13:12.442Z,14.03
2022-09-28T02:16:03.501Z,14.13
2022-09-28T02:18:30.265Z,14.33
2022-09-28T02:21:00.933Z,14.34
2022-09-28T02:23:29.345Z,14.26
2022-09-28T02:26:01.090Z,14.27
2022-09-28T02:28:27.764Z,14.35
2022-09-28T02:30:55.267Z,14.43
2022-09-28T02:33:24.747Z,14.42
2022-09-28T02:35:51.451Z,14.56
2022-09-28T02:38:18.074Z,14.68
2022-09-28T02:40:49.621Z,14.75
2022-09-28T02:43:34.698Z,14.59
2022-09-28T02:46:10.181Z,14.68
2022-09-28T02:48:44.242Z,14.61
2022-09-28T02:51:19.136Z,14.48
2022-09-28T02:53:53.671Z,14.64
2022-09-28T02:56:39.188Z,14.68
2022-09-28T02:59:24.107Z,14.70
2022-09-28T03:01:56.900Z,14.63
2022-09-28T03:04:32.667Z,14.75
2022-09-28T03:07:22.165Z,14.82
2022-09-28T03:09:51.500Z,14.39
2022-09-28T03:12:18.905Z,14.72
2022-09-28T03:14:45.619Z,14.60
2022-09-28T03:17:12.209Z,14.57
2022-09-28T03:19:38.837Z,14.66
2022-09-28T03:22:05.840Z,14.72
2022-09-28T03:24:32.414Z,14.57
2022-09-28T03:26:59.076Z,14.29
2022-09-28T03:29:25.616Z,14.17
2022-09-28T03:31:52.235Z,13.90
2022-09-28T03:34:18.955Z,14.27
2022-09-28T03:36:45.509Z,13.72
2022-09-28T03:39:12.020Z,13.71
2022-09-28T03:41:38.576Z,13.83
2022-09-28T03:44:05.381Z,14.08
2022-09-28T03:46:31.957Z,13.95
2022-09-28T03:48:59.412Z,14.06
2022-09-28T03:51:26.436Z,13.99
2022-09-28T03:53:53.053Z,13.90
2022-09-28T03:56:19.641Z,14.08
2022-09-28T03:58:46.233Z,14.11
2022-09-28T04:01:17.569Z,14.19
2022-09-28T04:03:45.007Z,14.08
2022-09-28T04:06:11.813Z,14.16
2022-09-28T04:08:38.518Z,13.93
2022-09-28T04:11:05.140Z,13.47
2022-09-28T04:13:31.960Z,13.62
2022-09-28T04:15:59.867Z,13.62
2022-09-28T04:18:26.605Z,13.80
2022-09-28T04:21:22.658Z,13.89
2022-09-28T04:23:49.400Z,12.94
2022-09-28T04:26:20.655Z,13.69
2022-09-28T04:29:16.571Z,13.62
2022-09-28T04:31:45.120Z,13.52
2022-09-28T04:34:12.701Z,13.50
2022-09-28T04:36:39.289Z,13.12
2022-09-28T04:39:05.877Z,13.24
2022-09-28T04:41:32.521Z,13.21
2022-09-28T04:43:59.342Z,12.81
2022-09-28T04:46:26.386Z,13.10
2022-09-28T04:48:52.999Z,12.95
2022-09-28T04:51:19.706Z,12.80
2022-09-28T04:53:46.289Z,12.84
2022-09-28T04:56:13.670Z,13.11
2022-09-28T04:58:40.625Z,12.95
2022-09-28T05:01:09.540Z,12.67
2022-09-28T05:03:36.211Z,12.76
2022-09-28T05:06:02.860Z,12.78
2022-09-28T05:08:29.531Z,11.66
2022-09-28T05:11:00.145Z,12.68
2022-09-28T05:13:27.597Z,12.55
2022-09-28T05:15:58.197Z,12.89
2022-09-28T05:18:26.428Z,12.82
2022-09-28T05:20:53.119Z,13.17
2022-09-28T05:23:19.722Z,13.13
2022-09-28T05:25:46.314Z,13.49
2022-09-28T05:28:13.007Z,14.06
2022-09-28T05:30:39.638Z,14.64
2022-09-28T05:33:06.238Z,15.31
2022-09-28T05:35:32.901Z,15.83
2022-09-28T05:38:05.091Z,15.81
2022-09-28T05:40:31.998Z,15.08
2022-09-28T05:42:59.142Z,15.71
2022-09-28T05:45:25.908Z,16.07
2022-09-28T05:47:52.489Z,16.02
2022-09-28T05:50:19.071Z,15.92
2022-09-28T05:52:46.000Z,16.19
2022-09-28T05:55:12.790Z,16.51
2022-09-28T05:57:39.389Z,17.32
2022-09-28T06:00:08.351Z,17.91
2022-09-28T06:02:35.618Z,18.54
2022-09-28T06:05:02.258Z,18.81
2022-09-28T06:07:30.495Z,19.54
2022-09-28T06:09:57.967Z,20.05
2022-09-28T06:12:25.999Z,20.60
2022-09-28T06:14:52.590Z,20.89
2022-09-28T06:17:19.152Z,20.50
2022-09-28T06:19:45.949Z,20.41
2022-09-28T06:22:12.698Z,19.04
2022-09-28T06:24:39.309Z,18.21
2022-09-28T06:27:05.909Z,18.12
2022-09-28T06:29:32.537Z,18.29
2022-09-28T06:31:59.199Z,17.61
2022-09-28T06:34:25.926Z,17.44
2022-09-28T06:36:55.183Z,17.06
2022-09-28T06:39:24.476Z,16.26
2022-09-28T06:41:56.851Z,16.40
2022-09-28T06:44:27.269Z,16.30
2022-09-28T06:46:57.652Z,16.58
2022-09-28T06:49:29.193Z,17.00
2022-09-28T06:51:58.871Z,16.33
2022-09-28T06:54:27.098Z,16.18
2022-09-28T06:56:53.797Z,16.54
2022-09-28T06:59:20.639Z,16.30
2022-09-28T07:01:47.367Z,16.80
2022-09-28T07:04:14.005Z,17.09
2022-09-28T07:06:40.905Z,16.91
2022-09-28T07:09:26.397Z,16.69
2022-09-28T07:11:54.358Z,16.40
2022-09-28T07:14:40.718Z,16.81
2022-09-28T07:17:13.616Z,16.84
2022-09-28T07:19:40.947Z,17.16
2022-09-28T07:22:07.777Z,17.18
2022-09-28T07:24:34.602Z,17.20
2022-09-28T07:27:02.048Z,16.94
2022-09-28T07:29:28.805Z,18.59
2022-09-28T07:31:55.424Z,19.36
2022-09-28T07:34:23.699Z,21.31
2022-09-28T07:36:50.467Z,21.76
2022-09-28T07:39:17.120Z,22.87
2022-09-28T07:41:44.501Z,23.61
2022-09-28T07:44:11.299Z,23.13
2022-09-28T07:46:38.069Z,22.58
2022-09-28T07:49:11.375Z,23.10
2022-09-28T07:51:39.001Z,23.78
2022-09-28T07:54:06.676Z,23.46
2022-09-28T07:56:35.000Z,22.48
2022-09-28T07:59:01.705Z,22.74
2022-09-28T08:01:30.728Z,23.63
2022-09-28T08:03:57.367Z,24.42
2022-09-28T08:06:23.989Z,24.32
2022-09-28T08:08:53.008Z,23.68
2022-09-28T08:11:19.611Z,24.62
2022-09-28T08:13:46.690Z,24.92
2022-09-28T08:16:13.726Z,24.32
2022-09-28T08:18:40.822Z,24.05
2022-09-28T08:21:26.056Z,24.28
2022-09-28T08:23:53.575Z,22.79
2022-09-28T08:26:20.335Z,24.08
2022-09-28T08:28:47.967Z,23.91
2022-09-28T08:31:14.764Z,23.33
2022-09-28T08:33:42.281Z,23.78
2022-09-28T08:36:09.572Z,23.55
2022-09-28T08:38:36.406Z,23.44
2022-09-28T08:41:06.001Z,23.43
2022-09-28T08:43:48.454Z,22.88
2022-09-28T08:46:17.141Z,23.10
2022-09-28T08:49:26.190Z,21.94
2022-09-28T08:52:12.081Z,22.21
2022-09-28T08:54:42.715Z,20.96
2022-09-28T08:57:12.036Z,20.81
2022-09-28T08:59:41.693Z,20.81
2022-09-28T09:02:13.521Z,21.30
2022-09-28T09:04:41.767Z,22.40
2022-09-28T09:07:22.477Z,22.67
2022-09-28T09:09:56.647Z,22.13
2022-09-28T09:12:40.016Z,22.48
2022-09-28T09:15:22.383Z,23.15
2022-09-28T09:17:49.258Z,23.67
2022-09-28T09:20:25.343Z,23.83
2022-09-28T09:22:58.283Z,23.66
2022-09-28T09:25:44.193Z,23.98
2022-09-28T09:28:20.071Z,23.92
2022-09-28T09:30:56.319Z,23.94
2022-09-28T09:33:37.220Z,22.25
2022-09-28T09:36:30.477Z,21.98
2022-09-28T09:39:21.469Z,22.28
2022-09-28T09:42:00.637Z,22.61
2022-09-28T09:44:38.884Z,22.51
2022-09-28T09:47:11.469Z,22.14
2022-09-28T09:49:41.283Z,21.35
2022-09-28T09:52:26.768Z,20.68
2022-09-28T09:54:53.466Z,20.53
2022-09-28T09:57:40.173Z,20.45
2022-09-28T10:00:14.633Z,21.27
2022-09-28T10:02:43.281Z,22.45
2022-09-28T10:05:14.015Z,21.68
2022-09-28T10:07:47.890Z,21.58
2022-09-28T10:10:18.297Z,21.36
2022-09-28T10:12:45.417Z,20.62
2022-09-28T10:15:15.646Z,20.13
2022-09-28T10:17:42.516Z,19.09
2022-09-28T10:20:13.453Z,18.61
2022-09-28T10:22:40.289Z,18.99
2022-09-28T10:25:09.289Z,19.58
2022-09-28T10:27:37.145Z,19.79
2022-09-28T10:30:04.065Z,21.09
2022-09-28T10:32:40.999Z,20.61
2022-09-28T10:35:17.239Z,20.74
2022-09-28T10:38:04.729Z,21.59
2022-09-28T10:40:46.311Z,19.76
2022-09-28T10:43:15.657Z,20.18
2022-09-28T10:45:42.494Z,20.03
2022-09-28T10:48:21.100Z,19.83
2022-09-28T10:51:05.271Z,19.30
2022-09-28T10:53:32.310Z,19.32
2022-09-28T10:56:03.764Z,20.67
2022-09-28T10:58:35.231Z,19.10
2022-09-28T11:01:03.895Z,19.41
2022-09-28T11:03:31.087Z,20.34
2022-09-28T11:06:05.805Z,20.67
2022-09-28T11:08:42.134Z,21.37
2022-09-28T11:11:13.287Z,22.17
2022-09-28T11:13:50.395Z,22.12
2022-09-28T11:16:25.216Z,22.89
2022-09-28T11:18:52.366Z,23.01
2022-09-28T11:21:22.450Z,23.72
2022-09-28T11:23:58.611Z,23.27
2022-09-28T11:26:25.319Z,22.70
2022-09-28T11:28:53.122Z,22.35
2022-09-28T11:31:29.651Z,22.13
2022-09-28T11:34:07.385Z,21.73
2022-09-28T11:36:52.698Z,22.25
2022-09-28T11:39:25.468Z,21.82
2022-09-28T11:42:04.512Z,22.09
2022-09-28T11:44:39.341Z,22.56
2022-09-28T11:47:25.054Z,23.07
2022-09-28T11:50:00.637Z,23.66
2022-09-28T11:52:40.126Z,23.93
2022-09-28T11:55:12.821Z,24.70
2022-09-28T11:57:42.585Z,25.10
2022-09-28T12:00:15.119Z,25.13
2022-09-28T12:02:41.855Z,24.64
2022-09-28T12:05:20.946Z,24.43
2022-09-28T12:07:50.890Z,24.83
2022-09-28T12:10:27.306Z,24.75
2022-09-28T12:13:01.303Z,24.35
2022-09-28T12:15:42.185Z,23.88
2022-09-28T12:18:36.825Z,23.09
2022-09-28T12:21:06.467Z,23.23
2022-09-28T12:23:37.470Z,23.01
2022-09-28T12:26:06.310Z,22.52
2022-09-28T12:28:33.076Z,21.82
2022-09-28T12:31:05.868Z,21.36
2022-09-28T12:33:32.574Z,21.40
2022-09-28T12:36:17.858Z,22.50
2022-09-28T12:39:15.115Z,21.35
2022-09-28T12:41:48.815Z,21.84
2022-09-28T12:44:18.562Z,22.92
2022-09-28T12:46:50.882Z,23.86
2022-09-28T12:50:33.389Z,24.31
2022-09-28T12:52:33.577Z,23.87
2022-09-28T12:55:16.003Z,23.95
2022-09-28T12:57:45.537Z,23.12
2022-09-28T13:00:16.245Z,23.99
2022-09-28T13:02:54.527Z,23.34
2022-09-28T13:05:34.633Z,23.74
2022-09-28T13:08:20.013Z,24.08
2022-09-28T13:10:55.777Z,23.92
2022-09-28T13:13:26.199Z,24.20
2022-09-28T13:15:56.915Z,23.45
2022-09-28T13:18:29.742Z,23.95
2022-09-28T13:20:56.759Z,24.19
2022-09-28T13:23:26.302Z,25.03
2022-09-28T13:25:57.132Z,24.01
2022-09-28T13:28:27.181Z,22.85
2022-09-28T13:30:55.385Z,23.99
2022-09-28T13:33:30.397Z,23.29
2022-09-28T13:35:57.269Z,22.87
2022-09-28T13:38:24.159Z,23.30
2022-09-28T13:41:06.424Z,23.06
2022-09-28T13:43:33.109Z,23.22
2022-09-28T13:46:06.432Z,22.82
2022-09-28T13:48:45.261Z,22.16
2022-09-28T13:51:23.873Z,21.94
2022-09-28T13:53:51.224Z,21.44
2022-09-28T13:56:21.252Z,22.44
2022-09-28T13:58:51.670Z,22.82
2022-09-28T14:01:20.996Z,23.11
2022-09-28T14:03:56.502Z,22.83
2022-09-28T14:06:27.721Z,23.34
2022-09-28T14:09:13.065Z,23.01
2022-09-28T14:11:56.750Z,22.95
2022-09-28T14:14:31.370Z,23.80
2022-09-28T14:17:18.313Z,23.91
2022-09-28T14:19:46.148Z,23.12
2022-09-28T14:22:19.003Z,22.89
2022-09-28T14:24:55.800Z,23.11
2022-09-28T14:27:25.322Z,22.48
2022-09-28T14:30:06.579Z,22.49
2022-09-28T14:32:36.304Z,23.15
2022-09-28T14:35:07.761Z,23.17
2022-09-28T14:37:54.533Z,23.27
2022-09-28T14:40:45.843Z,23.47
2022-09-28T14:43:25.011Z,23.62
2022-09-28T14:46:11.722Z,23.92
2022-09-28T14:48:48.181Z,23.90
2022-09-28T14:51:27.062Z,23.77
2022-09-28T14:53:55.113Z,23.91
2022-09-28T14:56:22.217Z,23.83
2022-09-28T14:58:53.424Z,23.43
2022-09-28T15:01:21.133Z,23.65
2022-09-28T15:03:50.871Z,23.92
2022-09-28T15:06:19.863Z,23.95
2022-09-28T15:08:46.557Z,23.80
2022-09-28T15:11:15.915Z,23.99
2022-09-28T15:13:43.023Z,23.94
2022-09-28T15:16:14.163Z,23.87
2022-09-28T15:18:44.310Z,23.74
2022-09-28T15:21:11.602Z,23.61
2022-09-28T15:23:44.003Z,22.51
2022-09-28T15:26:29.198Z,23.47
2022-09-28T15:28:56.000Z,23.53
2022-09-28T15:31:24.727Z,23.85
2022-09-28T15:34:10.146Z,23.27
2022-09-28T15:36:39.206Z,22.37
2022-09-28T15:39:05.867Z,22.92
2022-09-28T15:41:34.020Z,22.57
2022-09-28T15:44:12.885Z,22.72
2022-09-28T15:46:41.350Z,22.80
2022-09-28T15:49:20.181Z,22.55
2022-09-28T15:51:52.906Z,22.64
2022-09-28T15:54:27.777Z,21.86
2022-09-28T15:57:00.267Z,22.21
2022-09-28T15:59:38.266Z,22.38
2022-09-28T16:02:18.368Z,21.52
2022-09-28T16:04:48.233Z,21.95
2022-09-28T16:07:17.710Z,21.40
2022-09-28T16:10:01.103Z,21.68
2022-09-28T16:12:31.968Z,21.17
2022-09-28T16:15:04.140Z,21.64
2022-09-28T16:17:35.361Z,21.53
2022-09-28T16:20:25.769Z,21.58
2022-09-28T16:22:53.632Z,21.76
2022-09-28T16:25:25.307Z,21.66
2022-09-28T16:27:53.082Z,21.81
2022-09-28T16:30:24.397Z,21.45
2022-09-28T16:33:06.047Z,21.43
2022-09-28T16:35:35.792Z,21.67
2022-09-28T16:38:11.654Z,21.17
2022-09-28T16:40:39.369Z,21.46
2022-09-28T16:43:08.392Z,21.45
2022-09-28T16:45:37.773Z,20.97
2022-09-28T16:48:04.590Z,20.97
2022-09-28T16:50:32.568Z,21.10
2022-09-28T16:53:19.159Z,21.24
2022-09-28T16:55:47.164Z,19.91
2022-09-28T16:58:13.784Z,20.79
2022-09-28T17:00:43.611Z,20.75
2022-09-28T17:03:13.267Z,20.68
2022-09-28T17:05:40.356Z,20.54
2022-09-28T17:08:07.156Z,20.68
2022-09-28T17:10:56.175Z,19.82
2022-09-28T17:13:31.773Z,19.73
2022-09-28T17:15:58.915Z,18.81
2022-09-28T17:18:25.705Z,19.15
2022-09-28T17:20:55.125Z,19.52
2022-09-28T17:23:21.826Z,19.47
2022-09-28T17:25:48.618Z,19.72
2022-09-28T17:28:20.728Z,19.69
2022-09-28T17:30:47.586Z,19.11
2022-09-28T17:33:14.692Z,19.49
2022-09-28T17:35:42.291Z,19.21
2022-09-28T17:38:13.154Z,19.24
2022-09-28T17:40:41.166Z,19.02
2022-09-28T17:43:08.516Z,18.99
2022-09-28T17:45:39.608Z,18.45
2022-09-28T17:48:16.915Z,19.06
2022-09-28T17:50:46.535Z,19.01
2022-09-28T17:53:14.075Z,19.25
2022-09-28T17:55:43.608Z,18.87
2022-09-28T17:58:18.325Z,19.17
2022-09-28T18:00:48.819Z,18.97
2022-09-28T18:03:20.163Z,19.32
2022-09-28T18:05:51.732Z,19.38
2022-09-28T18:08:19.422Z,19.50
2022-09-28T18:10:52.265Z,19.58
2022-09-28T18:13:19.033Z,19.80
2022-09-28T18:15:46.031Z,19.74
2022-09-28T18:18:13.296Z,19.71
2022-09-28T18:20:43.540Z,20.13
2022-09-28T18:23:10.472Z,19.76
2022-09-28T18:25:40.955Z,19.50
2022-09-28T18:28:08.337Z,19.95
2022-09-28T18:30:38.330Z,18.98
2022-09-28T18:33:06.080Z,19.33
2022-09-28T18:35:32.826Z,19.32
2022-09-28T18:37:59.538Z,19.46
2022-09-28T18:40:26.673Z,18.98
2022-09-28T18:42:54.483Z,19.33
2022-09-28T18:45:21.452Z,19.33
2022-09-28T18:47:48.201Z,19.32
2022-09-28T18:50:18.660Z,19.23
2022-09-28T18:52:45.379Z,18.97
2022-09-28T18:55:12.423Z,18.47
2022-09-28T18:57:41.392Z,19.13
2022-09-28T19:00:09.970Z,18.66
2022-09-28T19:02:36.891Z,18.95
2022-09-28T19:05:06.048Z,18.45
2022-09-28T19:07:33.536Z,18.81
2022-09-28T19:10:00.429Z,18.98
2022-09-28T19:12:27.309Z,18.77
2022-09-28T19:14:54.029Z,18.59
2022-09-28T19:17:20.961Z,18.54
2022-09-28T19:19:47.587Z,18.45
2022-09-28T19:22:14.573Z,18.27
2022-09-28T19:24:43.706Z,18.14
2022-09-28T19:27:10.695Z,18.74
2022-09-28T19:29:37.518Z,18.75
2022-09-28T19:32:04.199Z,18.06
2022-09-28T19:34:30.844Z,18.43
2022-09-28T19:36:57.629Z,18.66
2022-09-28T19:39:24.527Z,18.03
2022-09-28T19:41:54.434Z,17.95
2022-09-28T19:44:25.555Z,18.03
2022-09-28T19:47:13.378Z,18.12
2022-09-28T19:49:40.837Z,17.46
2022-09-28T19:52:17.282Z,17.63
2022-09-28T19:54:45.706Z,17.82
2022-09-28T19:57:15.003Z,18.12
2022-09-28T19:59:41.738Z,17.76
2022-09-28T20:02:10.640Z,17.65
2022-09-28T20:04:37.327Z,18.01
2022-09-28T20:07:04.600Z,17.90
2022-09-28T20:09:31.833Z,18.23
2022-09-28T20:11:58.565Z,17.72
2022-09-28T20:14:26.027Z,17.41
2022-09-28T20:16:54.840Z,17.50
2022-09-28T20:19:23.173Z,17.75
2022-09-28T20:21:50.396Z,17.93
2022-09-28T20:24:17.892Z,18.32
2022-09-28T20:26:46.036Z,17.86
2022-09-28T20:29:13.067Z,17.67
2022-09-28T20:31:39.795Z,17.87
2022-09-28T20:34:06.401Z,17.54
2022-09-28T20:36:33.108Z,17.24
2022-09-28T20:39:03.119Z,17.28
2022-09-28T20:41:34.941Z,17.71
2022-09-28T20:44:15.060Z,17.64
2022-09-28T20:46:43.875Z,17.89
2022-09-28T20:49:10.613Z,17.74
2022-09-28T20:51:37.143Z,17.48
2022-09-28T20:54:03.669Z,17.83
2022-09-28T20:56:40.121Z,17.88
2022-09-28T20:59:10.849Z,17.80
2022-09-28T21:01:37.702Z,17.52
2022-09-28T21:04:05.311Z,18.10
2022-09-28T21:06:33.431Z,17.96
2022-09-28T21:09:00.332Z,18.22
2022-09-28T21:11:28.396Z,18.07
2022-09-28T21:13:56.175Z,17.63
2022-09-28T21:16:22.735Z,17.63
2022-09-28T21:18:49.291Z,18.05
2022-09-28T21:21:18.103Z,16.78
2022-09-28T21:23:45.104Z,16.75
2022-09-28T21:26:13.058Z,17.05
2022-09-28T21:28:40.344Z,17.85
2022-09-28T21:31:07.905Z,17.96
2022-09-28T21:33:34.521Z,17.15
2022-09-28T21:36:05.035Z,17.71
2022-09-28T21:38:31.709Z,17.45
2022-09-28T21:40:59.310Z,17.88
2022-09-28T21:43:26.940Z,18.11
2022-09-28T21:45:54.613Z,18.00
2022-09-28T21:48:21.748Z,17.41
2022-09-28T21:51:14.653Z,17.67
2022-09-28T21:53:41.516Z,18.17
2022-09-28T21:56:09.872Z,17.11
2022-09-28T21:58:36.613Z,17.33
2022-09-28T22:01:05.051Z,18.01
2022-09-28T22:03:32.552Z,18.17
2022-09-28T22:05:59.519Z,18.46
2022-09-28T22:08:26.666Z,18.15
2022-09-28T22:11:09.975Z,18.20
2022-09-28T22:13:40.773Z,18.22
2022-09-28T22:16:07.759Z,18.13
2022-09-28T22:18:34.765Z,17.70
2022-09-28T22:21:06.709Z,17.90
2022-09-28T22:23:33.972Z,17.76
2022-09-28T22:26:01.894Z,18.27
2022-09-28T22:28:28.948Z,18.53
2022-09-28T22:30:55.978Z,18.45
2022-09-28T22:33:22.954Z,18.69
2022-09-28T22:35:51.412Z,18.40
2022-09-28T22:38:19.082Z,18.50
2022-09-28T22:40:59.288Z,18.54
2022-09-28T22:43:26.527Z,18.86
2022-09-28T22:46:03.435Z,18.78
2022-09-28T22:48:30.143Z,18.91
2022-09-28T22:50:56.860Z,18.95
2022-09-28T22:53:23.467Z,19.13
2022-09-28T22:55:50.105Z,18.85
2022-09-28T22:58:16.715Z,19.10
2022-09-28T23:00:43.444Z,19.03
2022-09-28T23:03:10.144Z,18.93
2022-09-28T23:05:36.808Z,18.86
2022-09-28T23:08:03.611Z,19.07
2022-09-28T23:10:30.199Z,19.05
2022-09-28T23:12:57.078Z,18.90
2022-09-28T23:15:24.697Z,18.98
2022-09-28T23:17:52.419Z,18.84
2022-09-28T23:20:19.570Z,18.61
2022-09-28T23:22:47.782Z,18.35
2022-09-28T23:25:15.427Z,18.79
2022-09-28T23:27:45.875Z,18.80
2022-09-28T23:30:12.706Z,18.50
2022-09-28T23:32:39.267Z,18.56
2022-09-28T23:35:06.206Z,18.38
2022-09-28T23:37:32.762Z,18.24
2022-09-28T23:39:59.353Z,17.92
2022-09-28T23:42:25.930Z,18.13
2022-09-28T23:44:52.478Z,17.94
2022-09-28T23:47:19.165Z,18.25
2022-09-28T23:49:45.896Z,18.19
2022-09-28T23:52:12.538Z,18.20
2022-09-28T23:54:39.566Z,18.15
2022-09-28T23:57:06.209Z,18.14
2022-09-28T23:59:33.081Z,18.20
